createdAt,value
2022-09-01T00:00:51.774Z,99.90
2022-09-01T00:03:25.465Z,99.90
2022-09-01T00:05:58.439Z,99.90
2022-09-01T00:08:29.382Z,99.90
2022-09-01T00:11:00.523Z,99.90
2022-09-01T00:13:32.752Z,99.90
2022-09-01T00:16:05.535Z,99.90
2022-09-01T00:18:37.248Z,99.90
2022-09-01T00:21:08.374Z,99.90
2022-09-01T00:23:39.839Z,99.90
2022-09-01T00:26:11.010Z,99.90
2022-09-01T00:28:42.739Z,99.90
2022-09-01T00:31:15.921Z,99.90
2022-09-01T00:33:46.423Z,99.90
2022-09-01T00:36:19.324Z,99.90
2022-09-01T00:38:54.680Z,99.90
2022-09-01T00:41:30.405Z,99.90
2022-09-01T00:44:04.019Z,99.90
2022-09-01T00:46:43.986Z,99.90
2022-09-01T00:49:11.860Z,99.90
2022-09-01T00:51:45.146Z,99.90
2022-09-01T00:54:18.363Z,99.90
2022-09-01T00:56:57.279Z,99.90
2022-09-01T00:59:30.768Z,99.90
2022-09-01T01:02:01.834Z,99.90
2022-09-01T01:04:33.393Z,99.90
2022-09-01T01:07:04.617Z,99.90
2022-09-01T01:09:37.797Z,99.90
2022-09-01T01:12:12.379Z,99.90
2022-09-01T01:14:45.848Z,99.90
2022-09-01T01:17:16.445Z,99.90
2022-09-01T01:19:51.275Z,99.90
2022-09-01T01:22:25.889Z,99.90
2022-09-01T01:24:57.116Z,99.90
2022-09-01T01:27:28.999Z,99.90
2022-09-01T01:29:59.939Z,99.90
2022-09-01T01:32:30.795Z,99.90
2022-09-01T01:35:03.156Z,99.90
2022-09-01T01:37:36.058Z,99.90
2022-09-01T01:40:08.459Z,99.90
2022-09-01T01:42:40.392Z,99.90
2022-09-01T01:45:30.976Z,99.90
2022-09-01T01:48:02.412Z,99.90
2022-09-01T01:50:36.505Z,99.90
2022-09-01T01:53:11.497Z,99.90
2022-09-01T01:55:44.905Z,99.90
2022-09-01T01:58:16.810Z,99.90
2022-09-01T02:00:48.820Z,99.90
2022-09-01T02:03:23.080Z,99.90
2022-09-01T02:05:56.120Z,99.90
2022-09-01T02:08:28.747Z,99.90
2022-09-01T02:11:00.912Z,99.90
2022-09-01T02:13:32.363Z,99.90
2022-09-01T02:16:05.687Z,99.90
2022-09-01T02:18:39.620Z,99.90
2022-09-01T02:21:18.409Z,99.90
2022-09-01T02:23:47.083Z,99.90
2022-09-01T02:26:20.235Z,99.90
2022-09-01T02:28:55.145Z,99.50
2022-09-01T02:31:24.278Z,99.10
2022-09-01T02:33:55.573Z,98.90
2022-09-01T02:36:26.922Z,98.50
2022-09-01T02:38:57.812Z,98.70
2022-09-01T02:41:30.655Z,98.40
2022-09-01T02:44:03.022Z,98.80
2022-09-01T02:46:33.987Z,98.40
2022-09-01T02:49:06.646Z,98.20
2022-09-01T02:51:38.597Z,97.80
2022-09-01T02:54:09.763Z,97.80
2022-09-01T02:56:40.528Z,97.50
2022-09-01T02:59:12.959Z,96.90
2022-09-01T03:01:45.461Z,96.60
2022-09-01T03:04:16.908Z,96.50
2022-09-01T03:06:48.258Z,96.00
2022-09-01T03:09:20.698Z,95.90
2022-09-01T03:11:53.782Z,95.20
2022-09-01T03:14:25.591Z,95.10
2022-09-01T03:16:56.343Z,95.60
2022-09-01T03:19:27.891Z,95.60
2022-09-01T03:21:59.981Z,95.50
2022-09-01T03:24:30.891Z,95.30
2022-09-01T03:27:02.811Z,94.80
2022-09-01T03:29:33.776Z,94.60
2022-09-01T03:32:04.707Z,94.40
2022-09-01T03:34:37.173Z,94.00
2022-09-01T03:37:09.216Z,93.60
2022-09-01T03:39:40.684Z,93.60
2022-09-01T03:42:12.903Z,93.30
2022-09-01T03:44:45.224Z,93.50
2022-09-01T03:47:18.223Z,93.40
2022-09-01T03:49:53.328Z,92.60
2022-09-01T03:52:25.778Z,92.70
2022-09-01T03:54:57.006Z,92.60
2022-09-01T03:57:29.105Z,92.40
2022-09-01T04:00:01.906Z,92.70
2022-09-01T04:02:33.688Z,93.10
2022-09-01T04:05:08.218Z,92.70
2022-09-01T04:07:37.424Z,92.90
2022-09-01T04:10:10.490Z,92.30
2022-09-01T04:12:46.432Z,93.00
2022-09-01T04:15:18.774Z,92.60
2022-09-01T04:17:51.622Z,92.20
2022-09-01T04:20:24.747Z,92.20
2022-09-01T04:22:56.778Z,92.60
2022-09-01T04:25:29.028Z,92.50
2022-09-01T04:28:00.411Z,91.80
2022-09-01T04:30:32.586Z,91.70
2022-09-01T04:33:03.692Z,92.00
2022-09-01T04:35:40.534Z,91.80
2022-09-01T04:38:09.787Z,91.20
2022-09-01T04:40:42.078Z,91.20
2022-09-01T04:43:13.431Z,91.20
2022-09-01T04:45:45.005Z,91.30
2022-09-01T04:48:16.652Z,90.90
2022-09-01T04:50:48.461Z,91.30
2022-09-01T04:53:19.696Z,91.20
2022-09-01T04:55:51.426Z,91.30
2022-09-01T04:58:23.771Z,91.30
2022-09-01T05:00:56.189Z,91.30
2022-09-01T05:03:27.078Z,90.60
2022-09-01T05:05:59.304Z,90.90
2022-09-01T05:08:32.620Z,90.50
2022-09-01T05:11:04.122Z,90.70
2022-09-01T05:13:35.312Z,90.30
2022-09-01T05:16:10.323Z,89.80
2022-09-01T05:18:42.138Z,90.20
2022-09-01T05:21:14.199Z,89.10
2022-09-01T05:23:46.250Z,88.30
2022-09-01T05:26:19.486Z,88.50
2022-09-01T05:28:52.361Z,89.20
2022-09-01T05:31:24.176Z,88.80
2022-09-01T05:33:55.260Z,89.60
2022-09-01T05:36:28.023Z,89.00
2022-09-01T05:39:00.302Z,87.80
2022-09-01T05:41:31.984Z,89.20
2022-09-01T05:44:04.090Z,88.80
2022-09-01T05:46:35.358Z,88.60
2022-09-01T05:49:08.303Z,89.30
2022-09-01T05:51:46.100Z,86.50
2022-09-01T05:54:13.557Z,87.70
2022-09-01T05:56:45.543Z,89.10
2022-09-01T05:59:25.830Z,88.90
2022-09-01T06:01:50.896Z,88.70
2022-09-01T06:04:21.916Z,89.00
2022-09-01T06:07:06.874Z,89.50
2022-09-01T06:09:27.052Z,90.00
2022-09-01T06:11:58.336Z,89.50
2022-09-01T06:14:29.323Z,88.60
2022-09-01T06:17:00.143Z,89.50
2022-09-01T06:19:34.907Z,89.80
2022-09-01T06:22:04.303Z,89.50
2022-09-01T06:24:35.969Z,88.80
2022-09-01T06:27:08.154Z,87.00
2022-09-01T06:29:40.976Z,87.70
2022-09-01T06:32:14.023Z,87.90
2022-09-01T06:34:46.096Z,87.40
2022-09-01T06:37:17.085Z,87.30
2022-09-01T06:39:48.722Z,87.00
2022-09-01T06:42:20.626Z,87.00
2022-09-01T06:44:51.382Z,87.60
2022-09-01T06:47:22.705Z,87.90
2022-09-01T06:49:57.939Z,88.60
2022-09-01T06:53:31.836Z,87.80
2022-09-01T06:55:05.745Z,87.50
2022-09-01T07:00:08.147Z,87.70
2022-09-01T07:02:40.600Z,87.60
2022-09-01T07:05:58.873Z,87.20
2022-09-01T07:10:21.439Z,85.50
2022-09-01T07:17:57.400Z,87.90
2022-09-01T07:20:30.470Z,87.30
2022-09-01T07:23:03.776Z,88.10
2022-09-01T07:28:08.867Z,88.60
2022-09-01T07:30:42.213Z,88.10
2022-09-01T07:43:32.632Z,88.00
2022-09-01T07:46:36.645Z,87.80
2022-09-01T07:49:01.869Z,87.90
2022-09-01T07:53:39.107Z,87.20
2022-09-01T07:56:12.212Z,87.10
2022-09-01T07:58:43.914Z,86.40
2022-09-01T08:01:18.464Z,86.50
2022-09-01T08:03:52.298Z,85.80
2022-09-01T08:06:26.020Z,84.70
2022-09-01T08:09:01.447Z,84.50
2022-09-01T08:12:00.590Z,85.20
2022-09-01T08:14:06.817Z,84.10
2022-09-01T08:16:52.040Z,83.70
2022-09-01T08:19:16.546Z,84.80
2022-09-01T08:21:42.144Z,86.10
2022-09-01T08:24:12.869Z,86.90
2022-09-01T08:26:43.936Z,86.80
2022-09-01T08:29:16.996Z,87.20
2022-09-01T08:31:52.543Z,86.80
2022-09-01T08:34:23.534Z,86.20
2022-09-01T08:36:54.750Z,85.60
2022-09-01T08:39:25.567Z,86.20
2022-09-01T08:41:58.847Z,86.50
2022-09-01T08:44:32.179Z,86.70
2022-09-01T08:47:05.466Z,86.50
2022-09-01T08:49:45.986Z,83.30
2022-09-01T08:52:13.433Z,82.60
2022-09-01T08:54:46.853Z,82.40
2022-09-01T08:57:28.379Z,83.00
2022-09-01T09:00:03.073Z,83.40
2022-09-01T09:02:36.572Z,84.40
2022-09-01T09:05:16.763Z,86.00
2022-09-01T09:07:43.500Z,86.90
2022-09-01T09:10:17.008Z,86.20
2022-09-01T09:12:51.298Z,86.90
2022-09-01T09:15:24.852Z,87.20
2022-09-01T09:18:00.265Z,87.60
2022-09-01T09:20:31.993Z,87.70
2022-09-01T09:23:06.543Z,87.40
2022-09-01T09:25:37.652Z,88.30
2022-09-01T09:28:08.664Z,88.90
2022-09-01T09:30:40.903Z,88.90
2022-09-01T09:33:46.496Z,89.20
2022-09-01T09:35:47.772Z,89.60
2022-09-01T09:38:21.827Z,89.70
2022-09-01T09:41:16.053Z,89.30
2022-09-01T09:43:28.223Z,89.40
2022-09-01T09:46:02.911Z,89.70
2022-09-01T09:48:36.521Z,90.00
2022-09-01T09:51:10.527Z,90.10
2022-09-01T09:56:27.101Z,90.50
2022-09-01T09:58:58.011Z,90.60
2022-09-01T10:01:31.926Z,91.10
2022-09-01T10:04:05.711Z,90.80
2022-09-01T10:06:35.937Z,91.00
2022-09-01T10:09:09.570Z,91.30
2022-09-01T10:11:42.972Z,91.50
2022-09-01T10:14:23.605Z,91.80
2022-09-01T10:16:52.200Z,92.00
2022-09-01T10:19:25.897Z,92.20
2022-09-01T10:21:57.354Z,92.30
2022-09-01T10:24:31.992Z,92.50
2022-09-01T10:27:11.346Z,92.70
2022-09-01T10:29:48.591Z,92.80
2022-09-01T10:32:34.702Z,92.80
2022-09-01T10:34:51.219Z,92.60
2022-09-01T10:37:23.101Z,92.50
2022-09-01T10:39:56.558Z,92.60
2022-09-01T10:42:29.498Z,92.10
2022-09-01T10:45:03.531Z,92.30
2022-09-01T10:47:37.841Z,92.00
2022-09-01T10:50:13.295Z,91.90
2022-09-01T10:52:50.313Z,92.00
2022-09-01T10:55:24.465Z,92.20
2022-09-01T10:58:07.830Z,92.30
2022-09-01T11:00:37.018Z,92.50
2022-09-01T11:03:29.864Z,92.30
2022-09-01T11:05:39.623Z,92.20
2022-09-01T11:08:15.734Z,92.20
2022-09-01T11:10:49.456Z,91.90
2022-09-01T11:13:23.695Z,91.40
2022-09-01T11:15:55.767Z,91.00
2022-09-01T11:18:29.218Z,91.00
2022-09-01T11:21:03.101Z,90.60
2022-09-01T11:23:36.567Z,90.40
2022-09-01T11:26:24.973Z,90.20
2022-09-01T11:28:44.276Z,90.50
2022-09-01T11:31:17.691Z,90.60
2022-09-01T11:33:51.298Z,90.70
2022-09-01T11:36:24.331Z,90.70
2022-09-01T11:38:58.623Z,90.60
2022-09-01T11:41:33.232Z,90.40
2022-09-01T11:44:06.856Z,90.60
2022-09-01T11:46:40.715Z,90.70
2022-09-01T11:49:14.222Z,90.70
2022-09-01T11:51:47.579Z,90.90
2022-09-01T11:54:19.271Z,91.10
2022-09-01T11:56:50.420Z,91.30
2022-09-01T11:59:23.831Z,91.40
2022-09-01T12:01:57.286Z,91.50
2022-09-01T12:04:31.014Z,91.50
2022-09-01T12:07:04.434Z,91.60
2022-09-01T12:09:39.141Z,91.50
2022-09-01T12:12:12.660Z,91.60
2022-09-01T12:15:04.273Z,91.60
2022-09-01T12:17:18.049Z,91.50
2022-09-01T12:19:48.898Z,91.60
2022-09-01T12:22:22.796Z,91.60
2022-09-01T12:24:56.021Z,91.70
2022-09-01T12:27:27.123Z,91.80
2022-09-01T12:29:59.567Z,91.90
2022-09-01T12:32:30.921Z,92.00
2022-09-01T12:35:11.523Z,92.20
2022-09-01T12:37:40.421Z,92.30
2022-09-01T12:40:14.118Z,92.40
2022-09-01T12:42:48.155Z,92.50
2022-09-01T12:45:26.058Z,92.60
2022-09-01T12:47:56.960Z,92.70
2022-09-01T12:50:29.786Z,92.80
2022-09-01T12:53:04.531Z,92.80
2022-09-01T12:55:49.832Z,92.90
2022-09-01T12:58:23.305Z,93.00
2022-09-01T13:00:56.984Z,93.20
2022-09-01T13:03:29.111Z,93.20
2022-09-01T13:06:03.370Z,93.20
2022-09-01T13:09:07.168Z,93.40
2022-09-01T13:11:11.857Z,93.40
2022-09-01T13:13:43.024Z,93.60
2022-09-01T13:16:21.040Z,93.70
2022-09-01T13:21:26.090Z,93.90
2022-09-01T13:24:00.494Z,94.00
2022-09-01T13:26:32.962Z,94.00
2022-09-01T13:29:13.075Z,94.10
2022-09-01T13:34:22.179Z,94.20
2022-09-01T13:36:58.385Z,94.30
2022-09-01T13:39:31.284Z,94.30
2022-09-01T13:42:02.260Z,94.30
2022-09-01T13:44:35.408Z,94.40
2022-09-01T13:50:07.159Z,94.40
2022-09-01T13:52:40.067Z,94.60
2022-09-01T13:55:13.741Z,94.60
2022-09-01T13:57:55.209Z,94.80
2022-09-01T14:00:26.615Z,94.80
2022-09-01T14:03:00.986Z,95.00
2022-09-01T14:05:34.646Z,95.00
2022-09-01T14:08:05.976Z,95.00
2022-09-01T14:10:45.142Z,94.70
2022-09-01T14:13:23.744Z,94.70
2022-09-01T14:15:55.688Z,94.90
2022-09-01T14:18:28.584Z,94.90
2022-09-01T14:21:02.770Z,94.80
2022-09-01T14:23:33.783Z,94.80
2022-09-01T14:26:20.298Z,94.90
2022-09-01T14:28:51.377Z,95.00
2022-09-01T14:31:42.724Z,95.20
2022-09-01T14:34:19.742Z,95.40
2022-09-01T14:36:51.023Z,95.60
2022-09-01T14:39:39.611Z,95.70
2022-09-01T14:42:11.406Z,95.90
2022-09-01T14:47:49.678Z,96.20
2022-09-01T14:50:23.198Z,96.30
2022-09-01T14:53:00.069Z,96.30
2022-09-01T14:55:56.253Z,96.40
2022-09-01T14:58:25.411Z,96.50
2022-09-01T15:01:23.403Z,96.60
2022-09-01T15:03:53.948Z,96.70
2022-09-01T15:06:37.415Z,96.80
2022-09-01T15:12:05.673Z,97.10
2022-09-01T15:14:39.278Z,97.10
2022-09-01T15:17:10.292Z,97.20
2022-09-01T15:19:55.590Z,97.20
2022-09-01T15:22:27.044Z,97.20
2022-09-01T15:25:00.512Z,97.00
2022-09-01T15:27:31.267Z,97.10
2022-09-01T15:30:02.525Z,97.30
2022-09-01T15:32:33.346Z,97.40
2022-09-01T15:35:04.027Z,97.40
2022-09-01T15:37:34.928Z,97.50
2022-09-01T15:40:06.868Z,97.30
2022-09-01T15:42:39.385Z,97.50
2022-09-01T15:45:12.956Z,97.50
2022-09-01T15:47:45.832Z,97.60
2022-09-01T15:50:21.797Z,97.50
2022-09-01T15:53:09.893Z,97.30
2022-09-01T15:55:46.045Z,97.20
2022-09-01T15:58:19.372Z,97.30
2022-09-01T16:01:00.967Z,98.20
2022-09-01T16:03:33.424Z,97.90
2022-09-01T16:06:06.272Z,97.70
2022-09-01T16:08:38.322Z,97.80
2022-09-01T16:11:11.623Z,97.40
2022-09-01T16:13:44.650Z,97.40
2022-09-01T16:16:17.888Z,97.30
2022-09-01T16:18:51.441Z,97.40
2022-09-01T16:21:23.456Z,97.50
2022-09-01T16:23:55.564Z,97.20
2022-09-01T16:26:26.604Z,97.40
2022-09-01T16:29:01.140Z,97.40
2022-09-01T16:31:34.078Z,97.50
2022-09-01T16:34:08.666Z,97.40
2022-09-01T16:36:42.146Z,97.40
2022-09-01T16:39:15.538Z,97.50
2022-09-01T16:41:49.596Z,97.90
2022-09-01T16:44:43.189Z,98.30
2022-09-01T16:47:15.369Z,98.50
2022-09-01T16:49:47.348Z,98.50
2022-09-01T16:52:19.110Z,98.60
2022-09-01T16:54:53.649Z,98.70
2022-09-01T16:57:26.842Z,98.60
2022-09-01T16:59:58.453Z,98.70
2022-09-01T17:02:30.215Z,98.70
2022-09-01T17:05:03.559Z,98.60
2022-09-01T17:07:35.396Z,98.90
2022-09-01T17:10:09.200Z,99.10
2022-09-01T17:12:42.611Z,98.90
2022-09-01T17:15:17.225Z,99.10
2022-09-01T17:17:48.980Z,99.00
2022-09-01T17:20:20.634Z,99.00
2022-09-01T17:22:53.362Z,99.00
2022-09-01T17:25:27.352Z,99.00
2022-09-01T17:28:00.749Z,99.50
2022-09-01T17:30:33.799Z,99.10
2022-09-01T17:33:15.284Z,99.00
2022-09-01T17:35:43.086Z,98.90
2022-09-01T17:38:17.633Z,98.90
2022-09-01T17:40:49.428Z,98.80
2022-09-01T17:43:22.342Z,98.70
2022-09-01T17:45:55.933Z,98.70
2022-09-01T17:48:29.477Z,99.00
2022-09-01T17:51:02.018Z,99.00
2022-09-01T17:53:34.908Z,99.10
2022-09-01T17:56:08.203Z,99.20
2022-09-01T17:58:38.297Z,99.10
2022-09-01T18:01:11.857Z,99.10
2022-09-01T18:03:44.837Z,99.00
2022-09-01T18:06:18.147Z,99.50
2022-09-01T18:08:51.587Z,99.10
2022-09-01T18:11:25.672Z,99.20
2022-09-01T18:13:57.725Z,99.30
2022-09-01T18:16:31.506Z,99.30
2022-09-01T18:19:05.363Z,99.70
2022-09-01T18:21:43.483Z,99.30
2022-09-01T18:24:16.358Z,99.40
2022-09-01T18:26:49.522Z,99.50
2022-09-01T18:29:21.807Z,99.60
2022-09-01T18:31:58.954Z,99.90
2022-09-01T18:34:29.919Z,99.90
2022-09-01T18:37:06.121Z,99.90
2022-09-01T18:39:39.395Z,99.90
2022-09-01T18:42:11.110Z,99.90
2022-09-01T18:44:42.798Z,99.90
2022-09-01T18:47:16.175Z,99.90
2022-09-01T18:49:48.501Z,99.90
2022-09-01T18:52:23.532Z,99.90
2022-09-01T18:54:56.485Z,99.90
2022-09-01T18:57:29.810Z,99.90
2022-09-01T19:00:01.992Z,99.90
2022-09-01T19:02:36.382Z,99.90
2022-09-01T19:05:09.901Z,99.90
2022-09-01T19:07:43.422Z,99.90
2022-09-01T19:10:18.465Z,99.90
2022-09-01T19:12:48.954Z,99.90
2022-09-01T19:15:22.202Z,99.90
2022-09-01T19:17:55.507Z,99.90
2022-09-01T19:20:28.863Z,99.90
2022-09-01T19:23:04.951Z,99.90
2022-09-01T19:25:39.288Z,99.90
2022-09-01T19:28:12.566Z,99.90
2022-09-01T19:31:07.653Z,99.90
2022-09-01T19:33:41.028Z,99.90
2022-09-01T19:36:14.435Z,99.90
2022-09-01T19:38:46.298Z,99.90
2022-09-01T19:41:24.291Z,99.90
2022-09-01T19:43:57.754Z,99.90
2022-09-01T19:46:29.634Z,99.90
2022-09-01T19:49:02.983Z,99.90
2022-09-01T19:51:36.651Z,99.90
2022-09-01T19:54:08.626Z,99.90
2022-09-01T19:56:44.853Z,99.90
2022-09-01T19:59:19.661Z,99.90
2022-09-01T20:01:54.493Z,99.90
2022-09-01T20:04:26.506Z,99.90
2022-09-01T20:06:59.816Z,99.90
2022-09-01T20:09:31.566Z,99.90
2022-09-01T20:12:06.109Z,99.90
2022-09-01T20:14:37.933Z,99.90
2022-09-01T20:17:11.126Z,99.90
2022-09-01T20:19:44.342Z,99.90
2022-09-01T20:22:17.728Z,99.90
2022-09-01T20:24:50.299Z,99.90
2022-09-01T20:27:22.880Z,99.90
2022-09-01T20:29:55.860Z,99.90
2022-09-01T20:32:29.386Z,99.90
2022-09-01T20:35:02.669Z,99.90
2022-09-01T20:37:36.142Z,99.90
2022-09-01T20:40:09.448Z,99.90
2022-09-01T20:42:42.833Z,99.90
2022-09-01T20:45:16.540Z,99.90
2022-09-01T20:47:51.120Z,99.90
2022-09-01T20:50:23.945Z,99.90
2022-09-01T20:52:57.477Z,99.90
2022-09-01T20:55:30.760Z,99.90
2022-09-01T20:58:02.707Z,99.90
2022-09-01T21:00:35.792Z,99.90
2022-09-01T21:03:12.024Z,99.90
2022-09-01T21:05:43.831Z,99.90
2022-09-01T21:08:15.878Z,99.90
2022-09-01T21:10:49.189Z,99.90
2022-09-01T21:13:24.944Z,99.90
2022-09-01T21:15:57.145Z,99.90
2022-09-01T21:18:30.517Z,99.90
2022-09-01T21:21:04.415Z,99.90
2022-09-01T21:23:35.557Z,99.90
2022-09-01T21:26:06.797Z,99.90
2022-09-01T21:28:38.186Z,99.90
2022-09-01T21:31:10.066Z,99.90
2022-09-01T21:33:41.051Z,99.90
2022-09-01T21:36:12.244Z,99.90
2022-09-01T21:38:43.125Z,99.90
2022-09-01T21:41:14.199Z,99.90
2022-09-01T21:43:47.633Z,99.90
2022-09-01T21:46:20.348Z,99.90
2022-09-01T21:48:52.356Z,99.90
2022-09-01T21:51:22.998Z,99.90
2022-09-01T21:53:54.029Z,99.90
2022-09-01T21:56:25.816Z,99.90
2022-09-01T21:58:58.244Z,99.90
2022-09-01T22:01:32.528Z,99.90
2022-09-01T22:04:05.834Z,99.90
2022-09-01T22:06:37.086Z,99.90
2022-09-01T22:09:20.879Z,99.90
2022-09-01T22:11:43.274Z,99.90
2022-09-01T22:14:14.601Z,99.90
2022-09-01T22:16:45.725Z,99.90
2022-09-01T22:19:16.707Z,99.90
2022-09-01T22:21:48.140Z,99.90
2022-09-01T22:24:19.798Z,99.90
2022-09-01T22:26:51.043Z,99.90
2022-09-01T22:29:21.999Z,99.90
2022-09-01T22:31:53.342Z,99.90
2022-09-01T22:34:24.264Z,99.90
2022-09-01T22:36:55.249Z,99.90
2022-09-01T22:39:26.265Z,99.90
2022-09-01T22:41:57.326Z,99.90
2022-09-01T22:44:28.345Z,99.90
2022-09-01T22:46:59.618Z,99.90
2022-09-01T22:49:30.520Z,99.90
2022-09-01T22:52:01.276Z,99.90
2022-09-01T22:54:32.395Z,99.90
2022-09-01T22:57:03.951Z,99.90
2022-09-01T22:59:34.903Z,99.90
2022-09-01T23:02:05.848Z,99.90
2022-09-01T23:04:36.874Z,99.90
2022-09-01T23:07:08.533Z,99.90
2022-09-01T23:09:39.200Z,99.90
2022-09-01T23:12:10.117Z,99.90
2022-09-01T23:14:40.844Z,99.90
2022-09-01T23:17:12.087Z,99.90
2022-09-01T23:19:43.155Z,99.90
2022-09-01T23:22:14.473Z,99.90
2022-09-01T23:24:46.067Z,99.90
2022-09-01T23:27:17.336Z,99.90
2022-09-01T23:29:48.884Z,99.90
2022-09-01T23:32:20.812Z,99.90
2022-09-01T23:34:53.075Z,99.90
2022-09-01T23:37:25.031Z,99.90
2022-09-01T23:39:56.791Z,99.90
2022-09-01T23:42:28.651Z,99.90
2022-09-01T23:45:00.487Z,99.90
2022-09-01T23:47:33.346Z,99.90
2022-09-01T23:50:05.840Z,99.90
2022-09-01T23:52:37.599Z,99.90
2022-09-01T23:55:09.840Z,99.90
2022-09-01T23:57:42.037Z,99.90
